createdAt,value
2022-11-03T00:01:56.639Z,6.60
2022-11-03T00:04:23.382Z,6.60
2022-11-03T00:06:50.503Z,6.60
2022-11-03T00:09:17.475Z,6.60
2022-11-03T00:11:44.479Z,6.60
2022-11-03T00:14:11.092Z,6.60
2022-11-03T00:16:37.814Z,6.60
2022-11-03T00:19:04.505Z,6.50
2022-11-03T00:21:31.054Z,6.50
2022-11-03T00:23:57.656Z,6.40
2022-11-03T00:26:27.825Z,6.30
2022-11-03T00:28:55.405Z,6.20
2022-11-03T00:31:25.721Z,6.20
2022-11-03T00:33:52.355Z,6.20
2022-11-03T00:36:19.723Z,6.30
2022-11-03T00:38:46.343Z,6.40
2022-11-03T00:41:13.210Z,6.50
2022-11-03T00:43:39.873Z,6.60
2022-11-03T00:46:06.820Z,6.70
2022-11-03T00:48:33.729Z,6.80
2022-11-03T00:51:10.750Z,6.70
2022-11-03T00:53:47.124Z,6.50
2022-11-03T00:56:14.648Z,6.30
2022-11-03T00:58:42.263Z,6.10
2022-11-03T01:01:12.656Z,6.00
2022-11-03T01:03:39.850Z,5.90
2022-11-03T01:06:25.726Z,5.90
2022-11-03T01:08:52.283Z,5.90
2022-11-03T01:11:38.243Z,5.90
2022-11-03T01:14:04.963Z,5.90
2022-11-03T01:16:31.685Z,6.00
2022-11-03T01:18:58.239Z,6.00
2022-11-03T01:21:24.879Z,6.10
2022-11-03T01:23:51.439Z,6.10
2022-11-03T01:26:18.090Z,6.20
2022-11-03T01:28:45.233Z,6.20
2022-11-03T01:31:15.014Z,6.10
2022-11-03T01:33:41.629Z,6.10
2022-11-03T01:36:08.552Z,6.10
2022-11-03T01:38:35.485Z,6.10
2022-11-03T01:41:02.343Z,6.20
2022-11-03T01:43:31.218Z,6.20
2022-11-03T01:46:02.848Z,6.20
2022-11-03T01:48:29.465Z,6.10
2022-11-03T01:50:56.022Z,6.10
2022-11-03T01:53:22.566Z,6.10
2022-11-03T01:55:49.235Z,5.90
2022-11-03T01:58:15.731Z,5.70
2022-11-03T02:00:43.164Z,5.60
2022-11-03T02:03:09.895Z,5.50
2022-11-03T02:05:36.519Z,5.40
2022-11-03T02:10:40.967Z,5.40
2022-11-03T02:13:10.430Z,5.40
2022-11-03T02:15:36.978Z,5.40
2022-11-03T02:18:06.144Z,5.50
2022-11-03T02:20:32.704Z,5.50
2022-11-03T02:22:59.208Z,5.50
2022-11-03T02:25:34.790Z,5.60
2022-11-03T02:28:01.338Z,5.70
2022-11-03T02:30:28.087Z,5.70
2022-11-03T02:32:58.989Z,5.70
2022-11-03T02:35:28.396Z,5.70
2022-11-03T02:37:55.332Z,5.60
2022-11-03T02:40:24.007Z,5.50
2022-11-03T02:42:50.942Z,5.50
2022-11-03T02:45:18.069Z,5.50
2022-11-03T02:47:44.602Z,5.50
2022-11-03T02:50:11.146Z,5.60
2022-11-03T02:52:41.591Z,5.60
2022-11-03T02:55:08.235Z,5.70
2022-11-03T02:57:34.765Z,5.70
2022-11-03T03:00:02.959Z,5.70
2022-11-03T03:02:34.280Z,5.80
2022-11-03T03:05:01.693Z,5.90
2022-11-03T03:07:31.966Z,5.90
2022-11-03T03:10:02.918Z,5.90
2022-11-03T03:12:29.859Z,6.00
2022-11-03T03:14:56.451Z,6.00
2022-11-03T03:17:22.973Z,6.10
2022-11-03T03:19:49.474Z,6.20
2022-11-03T03:22:28.259Z,6.30
2022-11-03T03:25:07.742Z,6.30
2022-11-03T03:27:34.302Z,6.30
2022-11-03T03:30:05.070Z,6.30
2022-11-03T03:32:31.955Z,6.40
2022-11-03T03:34:58.552Z,6.50
2022-11-03T03:37:25.082Z,6.60
2022-11-03T03:39:52.490Z,6.70
2022-11-03T03:42:19.021Z,6.60
2022-11-03T03:44:45.619Z,6.70
2022-11-03T03:47:17.614Z,6.70
2022-11-03T03:49:44.163Z,6.70
2022-11-03T03:52:10.833Z,6.70
2022-11-03T03:54:37.444Z,6.70
2022-11-03T03:57:04.485Z,6.70
2022-11-03T03:59:31.035Z,6.70
2022-11-03T04:01:57.847Z,6.70
2022-11-03T04:04:24.548Z,6.60
2022-11-03T04:07:11.075Z,6.70
2022-11-03T04:09:37.637Z,6.70
2022-11-03T04:12:24.591Z,6.60
2022-11-03T04:15:09.432Z,6.50
2022-11-03T04:17:54.554Z,6.40
2022-11-03T04:20:39.754Z,6.30
2022-11-03T04:23:06.296Z,6.30
2022-11-03T04:25:32.838Z,6.30
2022-11-03T04:27:59.374Z,6.40
2022-11-03T04:30:26.319Z,6.40
2022-11-03T04:32:52.876Z,6.40
2022-11-03T04:35:20.328Z,6.50
2022-11-03T04:37:48.818Z,6.60
2022-11-03T04:40:16.323Z,6.70
2022-11-03T04:42:43.087Z,6.70
2022-11-03T04:45:28.462Z,6.70
2022-11-03T04:47:55.092Z,6.70
2022-11-03T04:50:22.196Z,6.80
2022-11-03T04:52:48.983Z,6.80
2022-11-03T04:55:16.373Z,6.80
2022-11-03T04:57:43.244Z,6.80
2022-11-03T05:00:17.085Z,6.70
2022-11-03T05:02:49.105Z,6.80
2022-11-03T05:05:19.094Z,6.90
2022-11-03T05:07:46.556Z,6.90
2022-11-03T05:10:14.648Z,6.90
2022-11-03T05:12:41.195Z,6.90
2022-11-03T05:15:08.797Z,6.90
2022-11-03T05:17:35.355Z,6.90
2022-11-03T05:20:02.068Z,6.80
2022-11-03T05:22:29.370Z,6.70
2022-11-03T05:24:56.689Z,6.70
2022-11-03T05:27:23.223Z,6.70
2022-11-03T05:29:49.972Z,6.80
2022-11-03T05:32:18.217Z,6.80
2022-11-03T05:34:49.080Z,6.80
2022-11-03T05:37:26.724Z,6.70
2022-11-03T05:39:54.841Z,6.60
2022-11-03T05:42:26.245Z,6.60
2022-11-03T05:44:52.813Z,6.50
2022-11-03T05:47:52.048Z,6.40
2022-11-03T05:50:19.674Z,6.30
2022-11-03T05:52:46.625Z,6.20
2022-11-03T05:55:22.142Z,6.10
2022-11-03T05:57:48.718Z,6.00
2022-11-03T06:00:28.841Z,5.90
2022-11-03T06:02:55.484Z,6.00
2022-11-03T06:05:22.535Z,6.00
2022-11-03T06:07:49.088Z,6.00
2022-11-03T06:10:24.897Z,6.10
2022-11-03T06:12:53.188Z,6.20
2022-11-03T06:15:22.198Z,6.30
2022-11-03T06:17:48.773Z,6.40
2022-11-03T06:20:16.406Z,6.40
2022-11-03T06:22:44.602Z,6.50
2022-11-03T06:25:18.624Z,6.50
2022-11-03T06:27:45.163Z,6.50
2022-11-03T06:30:24.735Z,6.50
2022-11-03T06:32:51.275Z,6.60
2022-11-03T06:35:17.992Z,6.60
2022-11-03T06:37:44.557Z,6.70
2022-11-03T06:40:11.084Z,6.70
2022-11-03T06:42:38.706Z,6.70
2022-11-03T06:45:25.537Z,6.80
2022-11-03T06:47:52.228Z,6.80
2022-11-03T06:50:31.551Z,6.60
2022-11-03T06:52:58.492Z,6.50
2022-11-03T06:55:25.621Z,6.40
2022-11-03T06:57:55.940Z,6.30
2022-11-03T07:00:40.178Z,6.30
2022-11-03T07:03:14.833Z,6.40
2022-11-03T07:05:41.447Z,6.50
2022-11-03T07:08:13.300Z,6.60
2022-11-03T07:10:39.856Z,6.70
2022-11-03T07:13:10.506Z,6.90
2022-11-03T07:15:38.219Z,7.00
2022-11-03T07:18:05.505Z,7.10
2022-11-03T07:20:32.250Z,7.10
2022-11-03T07:22:58.777Z,7.10
2022-11-03T07:25:25.356Z,7.00
2022-11-03T07:27:52.525Z,6.80
2022-11-03T07:30:29.852Z,6.70
2022-11-03T07:33:16.652Z,6.80
2022-11-03T07:36:08.930Z,6.90
2022-11-03T07:38:30.595Z,6.90
2022-11-03T07:40:57.367Z,6.90
2022-11-03T07:43:28.484Z,6.90
2022-11-03T07:45:55.366Z,6.80
2022-11-03T07:48:43.293Z,6.90
2022-11-03T07:51:23.219Z,6.90
2022-11-03T07:53:53.392Z,7.00
2022-11-03T07:56:20.802Z,7.20
2022-11-03T07:59:05.932Z,7.40
2022-11-03T08:01:33.972Z,7.50
2022-11-03T08:04:01.659Z,7.60
2022-11-03T08:06:28.340Z,7.70
2022-11-03T08:08:54.964Z,7.80
2022-11-03T08:11:26.093Z,7.90
2022-11-03T08:13:55.732Z,7.90
2022-11-03T08:16:22.426Z,7.90
2022-11-03T08:18:48.997Z,7.90
2022-11-03T08:21:17.281Z,8.00
2022-11-03T08:23:47.407Z,8.10
2022-11-03T08:26:14.561Z,8.30
2022-11-03T08:28:41.155Z,8.50
2022-11-03T08:31:12.198Z,8.80
2022-11-03T08:33:39.318Z,9.10
2022-11-03T08:36:06.094Z,9.50
2022-11-03T08:38:32.666Z,9.70
2022-11-03T08:40:59.259Z,9.90
2022-11-03T08:43:25.794Z,10.20
2022-11-03T08:45:53.681Z,10.60
2022-11-03T08:48:20.889Z,10.80
2022-11-03T08:50:48.359Z,11.10
2022-11-03T08:53:14.899Z,11.30
2022-11-03T08:55:41.500Z,11.50
2022-11-03T08:58:08.478Z,11.50
2022-11-03T09:00:40.701Z,11.50
2022-11-03T09:03:07.869Z,11.40
2022-11-03T09:05:34.539Z,11.50
2022-11-03T09:10:47.859Z,11.40
2022-11-03T09:13:14.422Z,11.40
2022-11-03T09:15:41.023Z,11.50
2022-11-03T09:18:07.774Z,11.60
2022-11-03T09:20:34.525Z,11.60
2022-11-03T09:23:01.060Z,11.60
2022-11-03T09:25:27.965Z,11.70
2022-11-03T09:27:54.490Z,11.70
2022-11-03T09:30:21.247Z,11.70
2022-11-03T09:32:48.240Z,11.80
2022-11-03T09:35:14.855Z,11.80
2022-11-03T09:37:41.415Z,11.90
2022-11-03T09:40:09.453Z,12.00
2022-11-03T09:42:35.996Z,12.00
2022-11-03T09:45:02.600Z,12.10
2022-11-03T09:47:31.104Z,12.20
2022-11-03T09:49:57.634Z,12.30
2022-11-03T09:52:24.240Z,12.60
2022-11-03T09:54:51.734Z,12.70
2022-11-03T09:57:18.555Z,12.80
2022-11-03T09:59:46.215Z,12.90
2022-11-03T10:02:19.808Z,13.10
2022-11-03T10:04:46.408Z,13.40
2022-11-03T10:07:12.955Z,13.60
2022-11-03T10:09:40.875Z,13.70
2022-11-03T10:12:08.112Z,13.60
2022-11-03T10:14:34.664Z,13.60
2022-11-03T10:17:01.246Z,13.50
2022-11-03T10:19:27.879Z,13.50
2022-11-03T10:21:54.451Z,13.60
2022-11-03T10:24:20.996Z,13.50
2022-11-03T10:26:51.319Z,13.40
2022-11-03T10:29:21.640Z,13.30
2022-11-03T10:31:50.436Z,13.30
2022-11-03T10:34:34.051Z,13.20
2022-11-03T10:37:09.292Z,13.30
2022-11-03T10:39:35.917Z,13.40
2022-11-03T10:42:02.674Z,13.40
2022-11-03T10:44:29.656Z,13.50
2022-11-03T10:46:56.214Z,13.50
2022-11-03T10:49:22.759Z,13.40
2022-11-03T10:51:49.996Z,13.30
2022-11-03T10:54:17.201Z,13.30
2022-11-03T10:56:43.962Z,13.40
2022-11-03T10:59:17.639Z,13.40
2022-11-03T11:01:44.472Z,13.40
2022-11-03T11:04:12.403Z,13.50
2022-11-03T11:06:39.529Z,13.50
2022-11-03T11:09:06.078Z,13.40
2022-11-03T11:11:32.646Z,13.30
2022-11-03T11:14:18.049Z,13.40
2022-11-03T11:16:51.983Z,13.30
2022-11-03T11:19:18.757Z,13.30
2022-11-03T11:21:45.375Z,13.30
2022-11-03T11:24:11.908Z,13.40
2022-11-03T11:26:38.881Z,13.60
2022-11-03T11:29:08.694Z,13.60
2022-11-03T11:31:35.233Z,13.60
2022-11-03T11:34:07.746Z,13.60
2022-11-03T11:36:34.339Z,13.70
2022-11-03T11:39:01.399Z,13.70
2022-11-03T11:41:46.871Z,13.70
2022-11-03T11:44:32.219Z,13.50
2022-11-03T11:46:58.770Z,13.50
2022-11-03T11:49:25.297Z,13.50
2022-11-03T11:51:51.852Z,13.60
2022-11-03T11:54:19.323Z,13.50
2022-11-03T11:56:46.742Z,13.50
2022-11-03T11:59:20.192Z,13.50
2022-11-03T12:01:51.901Z,13.60
2022-11-03T12:04:20.456Z,13.50
2022-11-03T12:06:47.081Z,13.50
2022-11-03T12:09:13.595Z,13.50
2022-11-03T12:11:45.607Z,13.50
2022-11-03T12:14:21.905Z,13.50
2022-11-03T12:16:48.500Z,13.40
2022-11-03T12:19:34.340Z,13.40
2022-11-03T12:22:03.149Z,13.40
2022-11-03T12:24:32.726Z,13.30
2022-11-03T12:26:59.718Z,13.30
2022-11-03T12:29:26.328Z,13.30
2022-11-03T12:31:53.446Z,13.30
2022-11-03T12:34:19.984Z,13.40
2022-11-03T12:36:47.974Z,13.40
2022-11-03T12:39:16.164Z,13.40
2022-11-03T12:41:42.720Z,13.40
2022-11-03T12:44:09.520Z,13.40
2022-11-03T12:46:36.105Z,13.30
2022-11-03T12:49:02.707Z,13.40
2022-11-03T12:51:29.382Z,13.40
2022-11-03T12:53:55.934Z,13.50
2022-11-03T12:56:22.464Z,13.50
2022-11-03T12:58:49.035Z,13.50
2022-11-03T13:01:16.209Z,13.50
2022-11-03T13:03:43.485Z,13.50
2022-11-03T13:06:11.627Z,13.60
2022-11-03T13:08:38.238Z,13.50
2022-11-03T13:11:24.822Z,13.50
2022-11-03T13:13:51.852Z,13.60
2022-11-03T13:16:18.489Z,13.60
2022-11-03T13:18:45.029Z,13.60
2022-11-03T13:21:11.668Z,13.60
2022-11-03T13:23:38.207Z,13.60
2022-11-03T13:26:04.903Z,13.60
2022-11-03T13:28:31.546Z,13.60
2022-11-03T13:30:58.101Z,13.50
2022-11-03T13:33:24.653Z,13.50
2022-11-03T13:35:51.244Z,13.50
2022-11-03T13:38:17.835Z,13.50
2022-11-03T13:41:05.284Z,13.50
2022-11-03T13:43:31.330Z,13.40
2022-11-03T13:46:02.155Z,13.40
2022-11-03T13:51:17.611Z,13.30
2022-11-03T13:56:30.873Z,13.20
2022-11-03T14:01:44.104Z,13.20
2022-11-03T14:06:57.326Z,13.20
2022-11-03T14:09:24.029Z,13.20
2022-11-03T14:12:09.429Z,13.10
2022-11-03T14:14:35.967Z,13.10
2022-11-03T14:17:02.521Z,13.10
2022-11-03T14:19:37.953Z,13.00
2022-11-03T14:22:06.361Z,13.00
2022-11-03T14:24:32.899Z,12.90
2022-11-03T14:26:59.528Z,13.00
2022-11-03T14:29:26.959Z,12.90
2022-11-03T14:31:53.540Z,13.00
2022-11-03T14:34:20.183Z,13.00
2022-11-03T14:36:46.974Z,13.00
2022-11-03T14:39:13.582Z,12.90
2022-11-03T14:41:58.900Z,12.90
2022-11-03T14:44:25.440Z,12.90
2022-11-03T14:46:51.994Z,12.90
2022-11-03T14:49:18.530Z,12.80
2022-11-03T14:51:45.111Z,12.80
2022-11-03T14:54:11.704Z,12.80
2022-11-03T14:56:38.264Z,12.80
2022-11-03T14:59:04.794Z,12.70
2022-11-03T15:01:31.713Z,12.70
2022-11-03T15:03:58.393Z,12.70
2022-11-03T15:06:25.126Z,12.70
2022-11-03T15:08:56.098Z,12.60
2022-11-03T15:11:23.263Z,12.60
2022-11-03T15:13:52.308Z,12.60
2022-11-03T15:16:19.271Z,12.50
2022-11-03T15:18:45.834Z,12.50
2022-11-03T15:21:12.448Z,12.40
2022-11-03T15:26:25.564Z,12.40
2022-11-03T15:28:52.108Z,12.30
2022-11-03T15:31:18.738Z,12.30
2022-11-03T15:33:45.274Z,12.20
2022-11-03T15:36:12.164Z,12.20
2022-11-03T15:38:38.767Z,12.20
2022-11-03T15:41:17.859Z,12.10
2022-11-03T15:43:44.787Z,12.10
2022-11-03T15:46:11.402Z,12.10
2022-11-03T15:48:38.047Z,12.00
2022-11-03T15:51:04.868Z,12.10
2022-11-03T15:53:31.434Z,12.00
2022-11-03T15:55:58.106Z,12.00
2022-11-03T15:58:24.695Z,12.00
2022-11-03T16:00:51.307Z,12.00
2022-11-03T16:03:17.938Z,11.90
2022-11-03T16:05:44.544Z,11.80
2022-11-03T16:08:11.438Z,11.80
2022-11-03T16:10:38.251Z,11.80
2022-11-03T16:13:04.798Z,11.80
2022-11-03T16:15:31.322Z,11.80
2022-11-03T16:18:02.743Z,11.80
2022-11-03T16:20:29.993Z,11.70
2022-11-03T16:22:56.674Z,11.70
2022-11-03T16:25:23.275Z,11.70
2022-11-03T16:27:49.838Z,11.70
2022-11-03T16:30:16.493Z,11.70
2022-11-03T16:32:43.052Z,11.70
2022-11-03T16:35:09.943Z,11.70
2022-11-03T16:37:36.555Z,11.70
2022-11-03T16:40:03.748Z,11.70
2022-11-03T16:42:30.460Z,11.70
2022-11-03T16:44:57.017Z,11.70
2022-11-03T16:47:25.270Z,11.60
2022-11-03T16:49:53.134Z,11.60
2022-11-03T16:52:19.894Z,11.60
2022-11-03T16:54:46.439Z,11.60
2022-11-03T16:57:12.990Z,11.60
2022-11-03T16:59:39.859Z,11.60
2022-11-03T17:02:08.821Z,11.60
2022-11-03T17:04:37.410Z,11.60
2022-11-03T17:07:04.154Z,11.50
2022-11-03T17:09:30.712Z,11.50
2022-11-03T17:11:57.266Z,11.40
2022-11-03T17:14:23.817Z,11.50
2022-11-03T17:16:50.362Z,11.40
2022-11-03T17:19:17.053Z,11.50
2022-11-03T17:21:43.675Z,11.50
2022-11-03T17:24:11.250Z,11.50
2022-11-03T17:26:51.259Z,11.50
2022-11-03T17:29:18.728Z,11.40
2022-11-03T17:31:45.280Z,11.40
2022-11-03T17:34:11.810Z,11.30
2022-11-03T17:36:38.536Z,11.30
2022-11-03T17:39:05.082Z,11.30
2022-11-03T17:41:31.628Z,11.40
2022-11-03T17:43:58.178Z,11.30
2022-11-03T17:46:24.711Z,11.30
2022-11-03T17:48:51.254Z,11.30
2022-11-03T17:51:17.785Z,11.30
2022-11-03T17:53:44.644Z,11.30
2022-11-03T17:58:59.141Z,11.30
2022-11-03T18:01:26.064Z,11.40
2022-11-03T18:03:52.892Z,11.50
2022-11-03T18:06:19.805Z,11.50
2022-11-03T18:08:46.678Z,11.50
2022-11-03T18:11:33.827Z,11.60
2022-11-03T18:14:00.705Z,11.60
2022-11-03T18:16:27.238Z,11.60
2022-11-03T18:18:53.781Z,11.60
2022-11-03T18:21:21.300Z,11.60
2022-11-03T18:23:48.046Z,11.60
2022-11-03T18:26:21.454Z,11.60
2022-11-03T18:28:49.231Z,11.60
2022-11-03T18:31:27.220Z,11.60
2022-11-03T18:33:53.961Z,11.60
2022-11-03T18:36:20.509Z,11.60
2022-11-03T18:38:48.366Z,11.50
2022-11-03T18:41:34.680Z,11.60
2022-11-03T18:44:01.788Z,11.60
2022-11-03T18:46:28.615Z,11.50
2022-11-03T18:48:55.280Z,11.60
2022-11-03T18:51:21.828Z,11.50
2022-11-03T18:53:48.843Z,11.50
2022-11-03T18:56:15.375Z,11.40
2022-11-03T18:58:41.966Z,11.40
2022-11-03T19:01:12.186Z,11.40
2022-11-03T19:03:38.853Z,11.40
2022-11-03T19:06:05.464Z,11.50
2022-11-03T19:08:32.266Z,11.50
2022-11-03T19:11:03.586Z,11.50
2022-11-03T19:13:32.749Z,11.50
2022-11-03T19:15:59.477Z,11.50
2022-11-03T19:18:26.176Z,11.50
2022-11-03T19:20:52.707Z,11.40
2022-11-03T19:23:19.255Z,11.40
2022-11-03T19:25:45.853Z,11.40
2022-11-03T19:28:12.902Z,11.40
2022-11-03T19:30:39.447Z,11.30
2022-11-03T19:33:07.321Z,11.30
2022-11-03T19:35:34.566Z,11.30
2022-11-03T19:38:02.480Z,11.30
2022-11-03T19:40:29.068Z,11.40
2022-11-03T19:42:55.663Z,11.40
2022-11-03T19:45:23.956Z,11.30
2022-11-03T19:50:46.555Z,11.30
2022-11-03T19:53:18.680Z,11.30
2022-11-03T19:55:45.214Z,11.20
2022-11-03T19:58:15.736Z,11.30
2022-11-03T20:00:42.851Z,11.30
2022-11-03T20:03:09.506Z,11.30
2022-11-03T20:05:36.037Z,11.30
2022-11-03T20:08:03.770Z,11.20
2022-11-03T20:10:33.221Z,11.30
2022-11-03T20:13:02.990Z,11.30
2022-11-03T20:15:29.518Z,11.30
2022-11-03T20:17:56.067Z,11.30
2022-11-03T20:20:23.302Z,11.30
2022-11-03T20:22:50.288Z,11.30
2022-11-03T20:25:21.410Z,11.30
2022-11-03T20:27:48.031Z,11.30
2022-11-03T20:30:15.130Z,11.30
2022-11-03T20:32:41.797Z,11.30
2022-11-03T20:35:09.700Z,11.40
2022-11-03T20:37:36.246Z,11.40
2022-11-03T20:40:02.951Z,11.40
2022-11-03T20:42:29.495Z,11.40
2022-11-03T20:44:56.026Z,11.40
2022-11-03T20:47:22.601Z,11.30
2022-11-03T20:49:49.131Z,11.20
2022-11-03T20:52:15.684Z,11.20
2022-11-03T20:54:43.106Z,11.20
2022-11-03T20:57:12.033Z,11.10
2022-11-03T20:59:38.876Z,11.20
2022-11-03T21:02:12.115Z,11.10
2022-11-03T21:04:38.920Z,11.10
2022-11-03T21:07:05.696Z,11.10
2022-11-03T21:09:32.233Z,11.00
2022-11-03T21:11:58.788Z,11.00
2022-11-03T21:14:25.752Z,11.00
2022-11-03T21:17:10.880Z,11.00
2022-11-03T21:19:55.883Z,10.90
2022-11-03T21:22:51.948Z,10.90
2022-11-03T21:25:16.780Z,10.90
2022-11-03T21:27:43.384Z,10.90
2022-11-03T21:30:13.893Z,10.80
2022-11-03T21:32:40.603Z,10.80
2022-11-03T21:35:07.939Z,10.80
2022-11-03T21:37:34.487Z,10.80
2022-11-03T21:40:01.025Z,10.80
2022-11-03T21:42:46.112Z,10.80
2022-11-03T21:45:13.388Z,10.70
2022-11-03T21:48:00.312Z,10.70
2022-11-03T21:50:26.844Z,10.70
2022-11-03T21:52:53.400Z,10.60
2022-11-03T21:55:19.945Z,10.70
2022-11-03T21:57:46.492Z,10.60
2022-11-03T22:00:13.376Z,10.60
2022-11-03T22:02:39.921Z,10.60
2022-11-03T22:05:10.591Z,10.60
2022-11-03T22:07:37.601Z,10.60
2022-11-03T22:10:04.382Z,10.60
2022-11-03T22:12:30.926Z,10.60
2022-11-03T22:15:16.040Z,10.60
2022-11-03T22:17:43.856Z,10.70
2022-11-03T22:20:29.095Z,10.70
2022-11-03T22:23:14.188Z,10.70
2022-11-03T22:25:59.193Z,10.60
2022-11-03T22:28:25.734Z,10.70
2022-11-03T22:31:10.882Z,10.60
2022-11-03T22:33:57.422Z,10.60
2022-11-03T22:36:23.964Z,10.60
2022-11-03T22:39:09.319Z,10.70
2022-11-03T22:41:54.339Z,10.70
2022-11-03T22:44:39.729Z,10.70
2022-11-03T22:47:08.354Z,10.70
2022-11-03T22:49:35.348Z,10.70
2022-11-03T22:52:01.962Z,10.80
2022-11-03T22:54:28.535Z,10.80
2022-11-03T22:56:55.089Z,10.80
2022-11-03T22:59:21.635Z,10.90
2022-11-03T23:01:48.371Z,10.90
2022-11-03T23:04:14.994Z,11.00
2022-11-03T23:06:41.624Z,11.00
2022-11-03T23:09:08.247Z,11.00
2022-11-03T23:11:35.207Z,11.10
2022-11-03T23:14:05.514Z,11.10
2022-11-03T23:16:36.355Z,11.10
2022-11-03T23:19:21.321Z,11.10
2022-11-03T23:21:48.579Z,11.20
2022-11-03T23:24:33.837Z,11.20
2022-11-03T23:27:00.539Z,11.20
2022-11-03T23:29:27.222Z,11.20
2022-11-03T23:31:53.945Z,11.10
2022-11-03T23:34:20.679Z,11.20
2022-11-03T23:36:47.228Z,11.20
2022-11-03T23:39:14.895Z,11.20
2022-11-03T23:41:41.653Z,11.20
2022-11-03T23:44:09.489Z,11.30
2022-11-03T23:46:54.592Z,11.30
2022-11-03T23:49:21.137Z,11.30
2022-11-03T23:51:47.703Z,11.30
2022-11-03T23:54:14.355Z,11.30
2022-11-03T23:57:00.524Z,11.30
2022-11-03T23:59:27.242Z,11.30
